Monte-Carlo, Monaco
Current Conditions -  °F | °C
As of 11:00 PM on Monday 22 Dec 2014 (Local Time) from LFMN Reporting Station
Scattered Clouds Scattered Clouds  
Wind Chill: 41°   Ceiling: Unl
Heat Index: 46°   Visibility: 6mi
Dew Point: 36°   Wind: 12mph
Humidity: 66%   Direction: 330°NNW
Pressure: 30.42"   Gusts: NA
Location:  43.75°N, 7.42°E
Report Text: LFMN 222100Z 33010KT 9999 SCT030 08/02 Q1030 NOSIG
Loading
Personal Weather Stations






























Interactive Weather Map New forecast layout! Learn more

10-Day Weather Forecast

Advertisements
Track Severe Weather on mobile